createdAt,value
2022-10-31T00:01:31.757Z,58.90
2022-10-31T00:03:59.233Z,50.58
2022-10-31T00:06:27.131Z,61.75
2022-10-31T00:09:00.359Z,55.15
2022-10-31T00:11:28.377Z,50.40
2022-10-31T00:13:55.864Z,55.72
2022-10-31T00:16:25.653Z,40.33
2022-10-31T00:18:58.455Z,46.90
2022-10-31T00:21:26.814Z,40.25
2022-10-31T00:26:22.111Z,36.63
2022-10-31T00:28:50.036Z,40.75
2022-10-31T00:31:17.984Z,42.50
2022-10-31T00:33:45.939Z,38.67
2022-10-31T00:36:15.996Z,33.38
2022-10-31T00:38:44.007Z,41.33
2022-10-31T00:41:12.397Z,34.33
2022-10-31T00:43:43.154Z,34.95
2022-10-31T00:46:12.224Z,25.80
2022-10-31T00:48:39.898Z,40.65
2022-10-31T00:51:07.702Z,39.97
2022-10-31T00:53:35.641Z,35.25
2022-10-31T00:56:03.992Z,27.67
2022-10-31T00:58:31.513Z,40.25
2022-10-31T01:00:59.156Z,34.65
2022-10-31T01:03:29.567Z,40.30
2022-10-31T01:05:58.224Z,45.58
2022-10-31T01:08:26.380Z,39.72
2022-10-31T01:13:34.306Z,38.60
2022-10-31T01:16:04.570Z,42.20
2022-10-31T01:18:34.661Z,29.42
2022-10-31T01:21:08.625Z,42.47
2022-10-31T01:23:36.824Z,43.28
2022-10-31T01:26:12.285Z,40.10
2022-10-31T01:29:02.059Z,46.45
2022-10-31T01:33:58.590Z,39.45
2022-10-31T01:36:35.427Z,36.95
2022-10-31T01:39:08.617Z,35.30
2022-10-31T01:41:39.238Z,32.17
2022-10-31T01:44:15.712Z,42.10
2022-10-31T01:46:48.117Z,42.72
2022-10-31T01:49:22.119Z,53.70
2022-10-31T01:51:55.211Z,51.80
2022-10-31T01:54:27.849Z,55.50
2022-10-31T01:56:57.382Z,47.58
2022-10-31T01:59:27.649Z,52.85
2022-10-31T02:01:55.950Z,49.13
2022-10-31T02:04:25.856Z,42.97
2022-10-31T02:06:58.822Z,57.13
2022-10-31T02:09:27.338Z,47.40
2022-10-31T02:11:58.617Z,46.38
2022-10-31T02:14:28.761Z,64.70
2022-10-31T02:16:56.670Z,36.35
2022-10-31T02:19:49.962Z,43.40
2022-10-31T02:22:22.550Z,37.90
2022-10-31T02:25:22.554Z,36.80
2022-10-31T02:28:08.523Z,46.53
2022-10-31T02:30:47.646Z,41.42
2022-10-31T02:33:27.254Z,43.88
2022-10-31T02:36:17.538Z,35.53
2022-10-31T02:38:57.803Z,38.97
2022-10-31T02:41:59.282Z,41.67
2022-10-31T02:44:32.347Z,30.50
2022-10-31T02:47:28.224Z,34.47
2022-10-31T02:50:20.466Z,36.95
2022-10-31T02:52:52.930Z,55.85
2022-10-31T02:55:26.480Z,48.25
2022-10-31T02:58:12.706Z,43.78
2022-10-31T03:00:52.859Z,35.65
2022-10-31T03:03:49.561Z,43.38
2022-10-31T03:06:39.216Z,32.50
2022-10-31T03:09:29.255Z,47.75
2022-10-31T03:12:12.192Z,49.80
2022-10-31T03:14:54.420Z,39.03
2022-10-31T03:17:45.689Z,53.58
2022-10-31T03:20:13.125Z,40.72
2022-10-31T03:22:43.310Z,46.63
2022-10-31T03:25:13.022Z,47.30
2022-10-31T03:27:44.573Z,35.83
2022-10-31T03:30:15.138Z,46.45
2022-10-31T03:32:57.542Z,45.17
2022-10-31T03:35:27.898Z,43.80
2022-10-31T03:37:57.260Z,41.03
2022-10-31T03:40:27.863Z,69.03
2022-10-31T03:43:01.969Z,51.80
2022-10-31T03:45:31.836Z,39.35
2022-10-31T03:48:00.870Z,52.20
2022-10-31T03:50:39.601Z,42.20
2022-10-31T03:53:31.640Z,34.40
2022-10-31T03:56:07.306Z,45.35
2022-10-31T03:58:54.469Z,49.72
2022-10-31T04:01:24.747Z,48.25
2022-10-31T04:03:52.905Z,43.58
2022-10-31T04:08:58.200Z,49.30
2022-10-31T04:11:31.913Z,41.90
2022-10-31T04:14:32.206Z,40.40
2022-10-31T04:17:02.364Z,44.58
2022-10-31T04:19:36.192Z,47.17
2022-10-31T04:22:03.676Z,43.17
2022-10-31T04:24:31.243Z,53.28
2022-10-31T04:26:59.400Z,50.45
2022-10-31T04:29:27.289Z,57.60
2022-10-31T04:31:54.702Z,41.42
2022-10-31T04:34:22.215Z,43.40
2022-10-31T04:36:51.210Z,51.53
2022-10-31T04:39:22.772Z,31.92
2022-10-31T04:42:13.625Z,41.63
2022-10-31T04:44:41.209Z,47.90
2022-10-31T04:49:37.698Z,45.15
2022-10-31T04:52:06.050Z,43.50
2022-10-31T04:54:34.072Z,42.08
2022-10-31T04:57:48.300Z,62.75
2022-10-31T05:00:20.031Z,49.65
2022-10-31T05:02:51.975Z,43.80
2022-10-31T05:05:22.409Z,44.58
2022-10-31T05:07:50.609Z,45.58
2022-10-31T05:10:22.484Z,54.97
2022-10-31T05:13:02.503Z,61.58
2022-10-31T05:15:48.704Z,45.65
2022-10-31T05:18:16.144Z,57.95
2022-10-31T05:21:02.287Z,55.53
2022-10-31T05:23:37.183Z,51.40
2022-10-31T05:26:07.290Z,54.58
2022-10-31T05:28:35.353Z,48.33
2022-10-31T05:31:04.549Z,59.70
2022-10-31T05:33:32.829Z,51.42
2022-10-31T05:36:18.902Z,45.63
2022-10-31T05:38:55.728Z,47.35
2022-10-31T05:41:29.277Z,47.05
2022-10-31T05:44:06.279Z,58.13
2022-10-31T05:46:41.615Z,53.78
2022-10-31T05:49:35.084Z,65.72
2022-10-31T05:52:28.636Z,60.30
2022-10-31T05:55:03.332Z,57.67
2022-10-31T05:57:33.351Z,48.53
2022-10-31T06:00:01.108Z,56.15
2022-10-31T06:02:32.581Z,40.92
2022-10-31T06:05:21.035Z,40.47
2022-10-31T06:07:48.564Z,56.00
2022-10-31T06:10:16.717Z,53.67
2022-10-31T06:12:46.208Z,57.33
2022-10-31T06:15:24.590Z,66.25
2022-10-31T06:18:05.269Z,52.63
2022-10-31T06:20:40.544Z,46.67
2022-10-31T06:23:07.950Z,58.20
2022-10-31T06:25:36.206Z,48.70
2022-10-31T06:28:06.266Z,48.20
2022-10-31T06:30:49.885Z,52.92
2022-10-31T06:35:56.209Z,46.42
2022-10-31T06:38:24.384Z,47.72
2022-10-31T06:40:52.434Z,42.38
2022-10-31T06:43:24.554Z,53.42
2022-10-31T06:46:06.231Z,49.72
2022-10-31T06:48:43.823Z,49.03
2022-10-31T06:51:20.581Z,53.28
2022-10-31T06:53:50.945Z,49.15
2022-10-31T06:58:50.474Z,50.22
2022-10-31T07:01:25.879Z,53.85
2022-10-31T07:03:53.474Z,57.75
2022-10-31T07:06:21.112Z,52.70
2022-10-31T07:08:49.020Z,54.20
2022-10-31T07:11:16.596Z,53.65
2022-10-31T07:13:44.331Z,53.35
2022-10-31T07:16:13.789Z,52.67
2022-10-31T07:18:41.924Z,43.35
2022-10-31T07:23:37.516Z,49.92
2022-10-31T07:26:43.291Z,53.40
2022-10-31T07:31:38.706Z,42.92
2022-10-31T07:34:13.330Z,44.65
2022-10-31T07:37:19.318Z,41.45
2022-10-31T07:39:46.839Z,57.63
2022-10-31T07:42:14.447Z,52.63
2022-10-31T07:44:45.333Z,50.63
2022-10-31T07:47:49.988Z,51.10
2022-10-31T07:50:36.045Z,51.30
2022-10-31T07:53:26.661Z,51.92
2022-10-31T07:55:57.209Z,47.38
2022-10-31T07:58:29.886Z,58.95
2022-10-31T08:00:59.656Z,50.55
2022-10-31T08:03:35.320Z,52.55
2022-10-31T08:06:21.866Z,46.15
2022-10-31T08:09:11.900Z,73.88
2022-10-31T08:11:42.496Z,55.85
2022-10-31T08:14:09.953Z,70.88
2022-10-31T08:16:37.446Z,58.38
2022-10-31T08:19:07.580Z,48.58
2022-10-31T08:21:39.145Z,61.72
2022-10-31T08:24:09.395Z,59.75
2022-10-31T08:26:37.111Z,46.75
2022-10-31T08:29:07.578Z,63.53
2022-10-31T08:31:40.331Z,42.53
2022-10-31T08:34:33.438Z,58.30
2022-10-31T08:37:33.134Z,48.03
2022-10-31T08:40:00.929Z,53.63
2022-10-31T08:42:28.358Z,47.53
2022-10-31T08:44:55.860Z,49.77
2022-10-31T08:47:23.890Z,39.47
2022-10-31T08:49:51.510Z,50.22
2022-10-31T08:52:18.940Z,54.33
2022-10-31T08:54:48.760Z,41.72
2022-10-31T08:57:34.821Z,46.38
2022-10-31T09:00:02.351Z,49.60
2022-10-31T09:02:59.177Z,44.65
2022-10-31T09:05:27.470Z,44.78
2022-10-31T09:08:00.034Z,50.25
2022-10-31T09:10:30.785Z,48.28
2022-10-31T09:13:00.547Z,42.60
2022-10-31T09:15:28.987Z,43.60
2022-10-31T09:18:09.864Z,42.97
2022-10-31T09:20:45.783Z,38.92
2022-10-31T09:23:18.905Z,43.05
2022-10-31T09:25:50.499Z,44.45
2022-10-31T09:28:37.431Z,40.58
2022-10-31T09:31:14.001Z,40.30
2022-10-31T09:34:16.877Z,28.80
2022-10-31T09:36:49.060Z,46.72
2022-10-31T09:39:21.626Z,30.75
2022-10-31T09:42:22.087Z,38.28
2022-10-31T09:45:00.905Z,35.15
2022-10-31T09:47:52.377Z,29.95
2022-10-31T09:51:05.397Z,35.88
2022-10-31T09:54:01.147Z,40.20
2022-10-31T09:56:29.678Z,33.50
2022-10-31T09:59:02.262Z,31.08
2022-10-31T10:01:30.009Z,30.77
2022-10-31T10:04:10.277Z,33.58
2022-10-31T10:06:58.453Z,30.00
2022-10-31T10:09:55.096Z,32.65
2022-10-31T10:13:02.201Z,28.42
2022-10-31T10:15:51.584Z,26.25
2022-10-31T10:18:47.075Z,29.30
2022-10-31T10:21:45.579Z,32.90
2022-10-31T10:24:31.926Z,25.08
2022-10-31T10:27:34.105Z,24.02
2022-10-31T10:30:12.038Z,20.65
2022-10-31T10:35:35.982Z,25.20
2022-10-31T10:38:08.514Z,29.40
2022-10-31T10:40:35.998Z,22.10
2022-10-31T10:43:24.750Z,28.92
2022-10-31T10:46:28.424Z,24.52
2022-10-31T10:49:24.058Z,19.08
2022-10-31T10:52:26.699Z,25.98
2022-10-31T10:55:12.869Z,23.25
2022-10-31T10:57:55.012Z,25.77
2022-10-31T11:00:29.032Z,27.77
2022-10-31T11:02:57.246Z,22.92
2022-10-31T11:05:36.145Z,23.25
2022-10-31T11:08:05.050Z,23.55
2022-10-31T11:10:33.199Z,17.15
2022-10-31T11:13:18.613Z,18.23
2022-10-31T11:16:03.764Z,19.70
2022-10-31T11:18:33.514Z,45.28
2022-10-31T11:21:04.461Z,17.83
2022-10-31T11:23:32.865Z,23.80
2022-10-31T11:26:07.526Z,20.40
2022-10-31T11:28:38.212Z,19.02
2022-10-31T11:31:13.349Z,19.10
2022-10-31T11:33:46.326Z,13.00
2022-10-31T11:36:31.850Z,18.60
2022-10-31T11:39:02.865Z,16.73
2022-10-31T11:41:33.710Z,17.73
2022-10-31T11:44:04.142Z,15.93
2022-10-31T11:46:38.341Z,14.85
2022-10-31T11:49:12.184Z,12.45
2022-10-31T11:51:40.977Z,11.40
2022-10-31T11:54:31.289Z,12.45
2022-10-31T11:56:58.918Z,8.43
2022-10-31T11:59:29.529Z,11.30
2022-10-31T12:01:59.658Z,10.32
2022-10-31T12:04:45.651Z,15.35
2022-10-31T12:07:13.160Z,12.00
2022-10-31T12:09:42.300Z,11.45
2022-10-31T12:12:32.470Z,7.78
2022-10-31T12:15:10.045Z,10.07
2022-10-31T12:18:03.555Z,11.63
2022-10-31T12:20:42.635Z,8.23
2022-10-31T12:23:16.389Z,15.65
2022-10-31T12:26:00.338Z,10.38
2022-10-31T12:28:39.972Z,7.95
2022-10-31T12:31:34.910Z,10.48
2022-10-31T12:34:31.319Z,11.77
2022-10-31T12:37:27.932Z,10.90
2022-10-31T12:40:27.179Z,12.95
2022-10-31T12:43:17.290Z,10.57
2022-10-31T12:45:58.029Z,11.00
2022-10-31T12:48:28.313Z,13.80
2022-10-31T12:51:09.792Z,8.32
2022-10-31T12:53:40.094Z,10.07
2022-10-31T12:56:31.591Z,15.57
2022-10-31T12:59:24.996Z,14.02
2022-10-31T13:02:16.609Z,14.10
2022-10-31T13:05:21.322Z,13.45
2022-10-31T13:07:56.723Z,11.82
2022-10-31T13:10:30.619Z,16.60
2022-10-31T13:13:07.161Z,13.77
2022-10-31T13:15:42.130Z,11.43
2022-10-31T13:18:20.961Z,8.95
2022-10-31T13:20:54.606Z,11.73
2022-10-31T13:23:50.546Z,11.75
2022-10-31T13:26:27.650Z,10.00
2022-10-31T13:29:12.959Z,7.70
2022-10-31T13:31:43.794Z,13.73
2022-10-31T13:34:32.937Z,12.77
2022-10-31T13:37:05.569Z,7.90
2022-10-31T13:39:45.769Z,7.40
2022-10-31T13:42:26.435Z,13.63
2022-10-31T13:44:53.987Z,10.75
2022-10-31T13:47:28.240Z,10.07
2022-10-31T13:50:25.470Z,8.80
2022-10-31T13:52:53.245Z,10.15
2022-10-31T13:55:41.631Z,11.52
2022-10-31T13:58:26.152Z,10.77
2022-10-31T14:01:05.795Z,9.25
2022-10-31T14:04:02.476Z,11.43
2022-10-31T14:06:35.431Z,7.45
2022-10-31T14:09:03.428Z,10.65
2022-10-31T14:11:34.582Z,10.35
2022-10-31T14:14:12.898Z,7.05
2022-10-31T14:16:44.279Z,8.90
2022-10-31T14:19:20.837Z,7.93
2022-10-31T14:21:49.927Z,8.73
2022-10-31T14:24:26.619Z,10.60
2022-10-31T14:26:55.622Z,8.38
2022-10-31T14:29:33.689Z,7.45
2022-10-31T14:32:15.794Z,10.25
2022-10-31T14:34:52.957Z,12.38
2022-10-31T14:37:42.247Z,13.33
2022-10-31T14:40:18.641Z,11.40
2022-10-31T14:43:15.962Z,7.90
2022-10-31T14:46:08.345Z,6.20
2022-10-31T14:48:54.026Z,7.78
2022-10-31T14:51:30.534Z,8.10
2022-10-31T14:54:00.720Z,9.63
2022-10-31T14:56:31.475Z,12.93
2022-10-31T14:59:07.046Z,15.52
2022-10-31T15:01:39.472Z,14.82
2022-10-31T15:04:23.701Z,12.48
2022-10-31T15:07:24.830Z,11.00
2022-10-31T15:10:05.669Z,11.48
2022-10-31T15:12:38.171Z,9.85
2022-10-31T15:15:19.545Z,14.13
2022-10-31T15:18:09.638Z,19.17
2022-10-31T15:20:45.695Z,14.82
2022-10-31T15:23:21.356Z,12.13
2022-10-31T15:25:48.893Z,12.73
2022-10-31T15:28:24.754Z,10.93
2022-10-31T15:30:57.529Z,14.55
2022-10-31T15:33:47.932Z,13.65
2022-10-31T15:36:27.721Z,14.75
2022-10-31T15:38:58.540Z,13.63
2022-10-31T15:41:44.858Z,10.88
2022-10-31T15:44:26.435Z,12.98
2022-10-31T15:47:07.568Z,15.60
2022-10-31T15:49:55.467Z,13.15
2022-10-31T15:52:47.980Z,10.98
2022-10-31T15:55:25.628Z,12.80
2022-10-31T15:57:56.367Z,9.98
2022-10-31T16:00:32.796Z,15.45
2022-10-31T16:03:27.543Z,15.25
2022-10-31T16:05:58.352Z,9.45
2022-10-31T16:08:31.644Z,12.60
2022-10-31T16:11:24.622Z,13.57
2022-10-31T16:13:57.379Z,11.23
2022-10-31T16:16:40.979Z,13.32
2022-10-31T16:19:18.963Z,13.38
2022-10-31T16:21:49.738Z,17.90
2022-10-31T16:24:23.500Z,14.02
2022-10-31T16:26:54.552Z,17.45
2022-10-31T16:29:48.247Z,13.60
2022-10-31T16:32:52.920Z,19.35
2022-10-31T16:35:39.629Z,13.65
2022-10-31T16:38:07.174Z,15.73
2022-10-31T16:40:35.855Z,10.93
2022-10-31T16:43:03.945Z,12.55
2022-10-31T16:45:33.114Z,9.82
2022-10-31T16:48:11.829Z,15.00
2022-10-31T16:50:39.473Z,11.63
2022-10-31T16:53:15.156Z,18.92
2022-10-31T16:55:59.271Z,14.50
2022-10-31T16:58:29.190Z,17.42
2022-10-31T17:00:57.528Z,14.57
2022-10-31T17:03:25.381Z,11.30
2022-10-31T17:05:53.069Z,14.25
2022-10-31T17:08:20.641Z,15.07
2022-10-31T17:10:51.229Z,12.55
2022-10-31T17:13:25.032Z,14.15
2022-10-31T17:15:56.542Z,15.13
2022-10-31T17:18:27.646Z,13.88
2022-10-31T17:21:01.408Z,17.08
2022-10-31T17:23:29.905Z,23.98
2022-10-31T17:28:26.661Z,23.52
2022-10-31T17:30:58.849Z,21.13
2022-10-31T17:33:26.896Z,28.08
2022-10-31T17:35:54.597Z,29.58
2022-10-31T17:38:22.070Z,28.52
2022-10-31T17:40:49.611Z,27.00
2022-10-31T17:43:17.949Z,33.35
2022-10-31T17:48:13.061Z,31.35
2022-10-31T17:50:40.824Z,37.95
2022-10-31T17:53:08.577Z,34.58
2022-10-31T17:55:37.097Z,36.90
2022-10-31T17:58:05.685Z,42.10
2022-10-31T18:00:34.167Z,42.17
2022-10-31T18:03:03.821Z,44.78
2022-10-31T18:05:31.715Z,45.53
2022-10-31T18:08:03.761Z,51.60
2022-10-31T18:10:31.975Z,48.85
2022-10-31T18:12:59.849Z,44.53
2022-10-31T18:17:54.850Z,51.17
2022-10-31T18:20:24.850Z,51.53
2022-10-31T18:22:52.416Z,51.17
2022-10-31T18:25:19.978Z,54.35
2022-10-31T18:27:47.387Z,57.03
2022-10-31T18:30:15.086Z,49.42
2022-10-31T18:32:42.558Z,62.35
2022-10-31T18:35:10.104Z,58.65
2022-10-31T18:37:37.540Z,63.58
2022-10-31T18:40:05.481Z,62.38
2022-10-31T18:42:33.016Z,62.85
2022-10-31T18:45:11.183Z,63.30
2022-10-31T18:47:39.149Z,65.22
2022-10-31T18:50:07.070Z,67.93
2022-10-31T18:52:34.787Z,66.88
2022-10-31T18:55:02.203Z,62.90
2022-10-31T18:57:29.906Z,68.80
2022-10-31T18:59:57.580Z,71.32
2022-10-31T19:02:25.297Z,63.92
2022-10-31T19:04:52.798Z,67.82
2022-10-31T19:07:20.224Z,69.80
2022-10-31T19:09:47.782Z,74.82
2022-10-31T19:12:15.549Z,81.47
2022-10-31T19:14:43.029Z,76.43
2022-10-31T19:17:10.533Z,80.28
2022-10-31T19:19:39.283Z,77.15
2022-10-31T19:22:06.942Z,74.63
2022-10-31T19:24:34.377Z,77.20
2022-10-31T19:27:01.875Z,79.07
2022-10-31T19:29:29.354Z,79.07
2022-10-31T19:31:57.119Z,72.85
2022-10-31T19:34:27.236Z,70.00
2022-10-31T19:36:54.720Z,77.18
2022-10-31T19:39:22.231Z,78.28
2022-10-31T19:41:49.686Z,72.20
2022-10-31T19:44:17.187Z,72.22
2022-10-31T19:46:52.637Z,65.43
2022-10-31T19:49:21.291Z,79.85
2022-10-31T19:51:48.770Z,60.90
2022-10-31T19:54:16.275Z,64.75
2022-10-31T19:56:43.867Z,63.20
2022-10-31T19:59:11.525Z,75.18
2022-10-31T20:01:38.998Z,71.22
2022-10-31T20:04:07.140Z,68.95
2022-10-31T20:06:38.538Z,66.00
2022-10-31T20:09:09.858Z,57.92
2022-10-31T20:11:38.729Z,63.17
2022-10-31T20:14:07.809Z,59.08
2022-10-31T20:16:35.310Z,65.68
2022-10-31T20:19:03.511Z,55.85
2022-10-31T20:21:32.148Z,62.30
2022-10-31T20:24:01.734Z,62.60
2022-10-31T20:26:30.995Z,56.83
2022-10-31T20:29:00.569Z,62.28
2022-10-31T20:31:31.115Z,48.65
2022-10-31T20:33:58.631Z,46.30
2022-10-31T20:36:28.693Z,47.83
2022-10-31T20:38:56.726Z,40.60
2022-10-31T20:41:26.671Z,42.10
2022-10-31T20:43:54.463Z,38.45
2022-10-31T20:46:23.837Z,35.60
2022-10-31T20:48:52.047Z,30.80
2022-10-31T20:51:22.700Z,28.58
2022-10-31T20:53:52.029Z,25.05
2022-10-31T20:56:22.065Z,28.38
2022-10-31T20:58:51.093Z,30.23
2022-10-31T21:01:27.232Z,22.33
2022-10-31T21:03:55.403Z,29.17
2022-10-31T21:08:51.791Z,31.98
2022-10-31T21:11:21.334Z,24.25
2022-10-31T21:13:49.498Z,34.20
2022-10-31T21:16:19.977Z,31.73
2022-10-31T21:18:57.830Z,33.58
2022-10-31T21:21:32.184Z,35.50
2022-10-31T21:24:02.063Z,33.10
2022-10-31T21:26:31.532Z,38.65
2022-10-31T21:28:59.950Z,33.83
2022-10-31T21:31:28.602Z,29.08
2022-10-31T21:33:56.281Z,22.90
2022-10-31T21:36:26.087Z,26.92
2022-10-31T21:38:54.785Z,24.17
2022-10-31T21:41:23.548Z,19.30
2022-10-31T21:43:54.136Z,28.50
2022-10-31T21:46:33.864Z,27.75
2022-10-31T21:49:06.940Z,24.25
2022-10-31T21:51:36.011Z,26.88
2022-10-31T21:54:21.973Z,28.88
2022-10-31T21:56:49.427Z,28.05
2022-10-31T21:59:17.125Z,27.65
2022-10-31T22:01:44.754Z,22.40
2022-10-31T22:04:12.938Z,32.25
2022-10-31T22:06:40.469Z,28.15
2022-10-31T22:09:10.500Z,23.30
2022-10-31T22:11:38.299Z,19.55
2022-10-31T22:14:06.402Z,22.48
2022-10-31T22:16:36.199Z,32.00
2022-10-31T22:19:05.710Z,33.40
2022-10-31T22:21:44.042Z,25.17
2022-10-31T22:24:11.974Z,20.45
2022-10-31T22:26:40.018Z,26.15
2022-10-31T22:29:12.107Z,24.38
2022-10-31T22:31:42.999Z,25.90
2022-10-31T22:34:11.216Z,17.45
2022-10-31T22:39:06.627Z,18.92
2022-10-31T22:41:35.833Z,22.60
2022-10-31T22:44:04.085Z,22.35
2022-10-31T22:49:03.678Z,26.27
2022-10-31T22:51:37.638Z,24.30
2022-10-31T22:54:07.464Z,24.00
2022-10-31T22:56:35.368Z,26.23
2022-10-31T22:59:03.295Z,27.17
2022-10-31T23:01:33.364Z,25.50
2022-10-31T23:04:01.577Z,22.63
2022-10-31T23:09:02.037Z,31.17
2022-10-31T23:11:33.928Z,26.30
2022-10-31T23:14:10.388Z,16.92
2022-10-31T23:16:53.392Z,16.08
2022-10-31T23:19:23.830Z,11.48
2022-10-31T23:21:57.327Z,7.53
2022-10-31T23:24:28.279Z,13.38
2022-10-31T23:27:09.263Z,11.60
2022-10-31T23:29:38.798Z,14.00
2022-10-31T23:32:09.609Z,15.73
2022-10-31T23:34:37.037Z,16.13
2022-10-31T23:37:04.670Z,22.83
2022-10-31T23:39:32.178Z,22.17
2022-10-31T23:41:59.746Z,31.02
2022-10-31T23:44:27.185Z,28.80
2022-10-31T23:46:54.699Z,35.70
2022-10-31T23:49:22.131Z,44.35
2022-10-31T23:51:49.586Z,42.47
2022-10-31T23:54:17.078Z,43.53
2022-10-31T23:56:44.518Z,38.53
2022-10-31T23:59:12.608Z,42.88
